Terminal Aerodrome Forecast
Issued by NWS

Home | Current Version | Previous Version | Text Only | Print | Product List | Glossary On
Versions: 1 2 3 4 5 6 7 8 9 10 11 12 13 14 15 16 17
000
FTAK31 PAJN 171124
TAFAJN
TAF
PAJN 171124Z 1712/1812 09005KT P6SM -SHRA SCT009 BKN035 OVC045
     FM171300 10008KT P6SM -SHRA OVC025
      TEMPO 1713/1717 4SM -SHRA BR
     FM171700 11010KT P6SM -SHRA OVC035
     FM172100 11015KT P6SM -SHRA OVC035=

USA.gov is the U.S. government's official web portal to all federal, state and local government web resources and services.